createdAt,value
2022-11-28T00:00:50.844Z,8.75
2022-11-28T00:01:54.362Z,9.00
2022-11-28T00:02:58.413Z,5.75
2022-11-28T00:04:01.717Z,5.75
2022-11-28T00:05:05.406Z,7.50
2022-11-28T00:06:08.909Z,7.00
2022-11-28T00:07:12.957Z,6.25
2022-11-28T00:08:16.798Z,5.00
2022-11-28T00:09:20.278Z,7.25
2022-11-28T00:10:23.774Z,5.50
2022-11-28T00:11:27.661Z,5.00
2022-11-28T00:12:31.047Z,6.00
2022-11-28T00:13:34.550Z,6.00
2022-11-28T00:14:38.535Z,5.50
2022-11-28T00:15:42.170Z,3.00
2022-11-28T00:16:45.729Z,4.00
2022-11-28T00:17:49.333Z,6.00
2022-11-28T00:18:56.164Z,5.50
2022-11-28T00:19:59.605Z,4.00
2022-11-28T00:21:04.102Z,3.75
2022-11-28T00:22:07.407Z,5.50
2022-11-28T00:23:10.865Z,4.00
2022-11-28T00:24:14.033Z,4.50
2022-11-28T00:25:17.421Z,4.00
2022-11-28T00:26:20.615Z,3.00
2022-11-28T00:27:23.682Z,4.00
2022-11-28T00:28:26.972Z,4.25
2022-11-28T00:29:30.862Z,4.00
2022-11-28T00:30:34.464Z,5.25
2022-11-28T00:31:38.084Z,5.25
2022-11-28T00:32:41.533Z,3.75
2022-11-28T00:33:45.236Z,4.25
2022-11-28T00:34:48.617Z,4.00
2022-11-28T00:35:51.798Z,3.00
2022-11-28T00:36:54.987Z,3.50
2022-11-28T00:37:58.474Z,4.25
2022-11-28T00:39:01.964Z,3.25
2022-11-28T00:40:05.051Z,3.00
2022-11-28T00:41:08.216Z,4.00
2022-11-28T00:42:11.502Z,1.75
2022-11-28T00:43:14.481Z,4.00
2022-11-28T00:44:17.669Z,4.00
2022-11-28T00:45:20.743Z,3.20
2022-11-28T00:46:23.987Z,2.50
2022-11-28T00:47:28.025Z,4.00
2022-11-28T00:48:31.512Z,4.00
2022-11-28T00:49:34.799Z,1.75
2022-11-28T00:50:37.983Z,2.75
2022-11-28T00:51:41.360Z,4.00
2022-11-28T00:52:44.864Z,4.75
2022-11-28T00:53:48.068Z,3.00
2022-11-28T00:54:53.127Z,2.75
2022-11-28T00:55:55.836Z,3.00
2022-11-28T00:56:59.124Z,3.25
2022-11-28T00:58:02.432Z,2.00
2022-11-28T00:59:05.604Z,1.50
2022-11-28T01:00:08.870Z,2.00
2022-11-28T01:01:12.185Z,3.00
2022-11-28T01:02:15.523Z,3.75
2022-11-28T01:03:18.516Z,4.00
2022-11-28T01:04:21.603Z,1.80
2022-11-28T01:05:24.573Z,2.50
2022-11-28T01:06:28.109Z,5.00
2022-11-28T01:07:31.707Z,3.00
2022-11-28T01:08:34.837Z,0.00
2022-11-28T01:09:38.124Z,0.20
2022-11-28T01:10:44.173Z,1.50
2022-11-28T01:11:47.147Z,6.00
2022-11-28T01:12:50.432Z,6.00
2022-11-28T01:13:54.032Z,4.50
2022-11-28T01:14:57.208Z,5.75
2022-11-28T01:16:01.234Z,4.50
2022-11-28T01:17:05.924Z,3.75
2022-11-28T01:18:09.512Z,3.50
2022-11-28T01:19:12.811Z,3.50
2022-11-28T01:20:15.984Z,4.00
2022-11-28T01:21:19.262Z,4.75
2022-11-28T01:22:22.452Z,6.00
2022-11-28T01:23:25.427Z,5.00
2022-11-28T01:24:28.709Z,3.50
2022-11-28T01:25:32.420Z,3.25
2022-11-28T01:26:36.004Z,4.50
2022-11-28T01:27:39.477Z,4.50
2022-11-28T01:28:42.875Z,3.25
2022-11-28T01:29:46.355Z,3.25
2022-11-28T01:30:49.450Z,3.75
2022-11-28T01:31:52.806Z,4.25
2022-11-28T01:32:56.308Z,3.50
2022-11-28T01:33:59.803Z,4.00
2022-11-28T01:35:03.504Z,4.00
2022-11-28T01:36:06.898Z,3.00
2022-11-28T01:37:09.967Z,2.75
2022-11-28T01:38:12.937Z,2.75
2022-11-28T01:39:16.032Z,4.25
2022-11-28T01:40:19.612Z,3.50
2022-11-28T01:41:22.997Z,1.25
2022-11-28T01:42:26.276Z,2.25
2022-11-28T01:43:29.579Z,3.00
2022-11-28T01:44:32.569Z,4.00
2022-11-28T01:45:35.818Z,4.75
2022-11-28T01:46:38.863Z,4.00
2022-11-28T01:47:42.189Z,1.50
2022-11-28T01:48:45.390Z,1.50
2022-11-28T01:49:48.631Z,2.75
2022-11-28T01:50:52.151Z,3.75
2022-11-28T01:51:55.335Z,5.00
2022-11-28T01:52:58.303Z,6.25
2022-11-28T01:54:01.591Z,4.00
2022-11-28T01:55:04.777Z,2.50
2022-11-28T01:56:08.469Z,2.50
2022-11-28T01:57:11.746Z,3.50
2022-11-28T01:58:14.928Z,2.50
2022-11-28T01:59:18.117Z,2.50
2022-11-28T02:00:21.194Z,3.25
2022-11-28T02:01:24.669Z,3.25
2022-11-28T02:02:27.798Z,3.00
2022-11-28T02:03:31.050Z,2.00
2022-11-28T02:04:34.634Z,3.75
2022-11-28T02:05:38.125Z,4.50
2022-11-28T02:06:41.630Z,2.00
2022-11-28T02:07:44.994Z,3.00
2022-11-28T02:08:48.398Z,3.50
2022-11-28T02:09:51.566Z,4.50
2022-11-28T02:10:55.066Z,3.50
2022-11-28T02:11:58.438Z,3.00
2022-11-28T02:13:01.732Z,3.50
2022-11-28T02:14:05.019Z,1.25
2022-11-28T02:15:08.404Z,2.25
2022-11-28T02:16:11.623Z,3.00
2022-11-28T02:17:15.074Z,2.25
2022-11-28T02:18:18.250Z,3.00
2022-11-28T02:19:21.433Z,4.00
2022-11-28T02:20:24.716Z,4.50
2022-11-28T02:21:28.002Z,2.75
2022-11-28T02:22:32.110Z,2.75
2022-11-28T02:23:35.364Z,5.50
2022-11-28T02:24:38.672Z,6.00
2022-11-28T02:25:42.368Z,3.50
2022-11-28T02:26:45.767Z,2.50
2022-11-28T02:27:49.554Z,1.50
2022-11-28T02:28:53.047Z,3.00
2022-11-28T02:29:56.230Z,3.50
2022-11-28T02:30:59.660Z,2.50
2022-11-28T02:32:02.909Z,2.75
2022-11-28T02:33:06.497Z,3.50
2022-11-28T02:34:09.974Z,4.25
2022-11-28T02:35:13.457Z,3.50
2022-11-28T02:36:16.616Z,4.00
2022-11-28T02:37:20.155Z,1.00
2022-11-28T02:38:23.317Z,1.50
2022-11-28T02:39:26.431Z,2.75
2022-11-28T02:40:29.674Z,3.00
2022-11-28T02:41:33.176Z,2.00
2022-11-28T02:42:36.582Z,3.50
2022-11-28T02:43:39.950Z,3.00
2022-11-28T02:44:43.722Z,3.00
2022-11-28T02:45:47.634Z,2.00
2022-11-28T02:46:51.171Z,1.75
2022-11-28T02:47:54.497Z,2.00
2022-11-28T02:48:58.011Z,2.00
2022-11-28T02:50:01.391Z,2.50
2022-11-28T02:51:04.464Z,3.75
2022-11-28T02:52:07.747Z,4.25
2022-11-28T02:53:11.139Z,2.50
2022-11-28T02:54:14.726Z,1.50
2022-11-28T02:55:18.221Z,1.50
2022-11-28T02:56:21.295Z,2.50
2022-11-28T02:57:24.476Z,4.50
2022-11-28T02:58:27.770Z,4.50
2022-11-28T02:59:31.122Z,4.25
2022-11-28T03:00:34.799Z,6.00
2022-11-28T03:01:38.084Z,2.50
2022-11-28T03:02:41.612Z,2.50
2022-11-28T03:03:45.011Z,2.00
2022-11-28T03:04:48.290Z,2.00
2022-11-28T03:05:51.484Z,2.50
2022-11-28T03:06:55.168Z,2.75
2022-11-28T03:07:58.704Z,2.00
2022-11-28T03:09:02.047Z,4.00
2022-11-28T03:10:05.744Z,3.50
2022-11-28T03:11:09.122Z,2.00
2022-11-28T03:12:12.502Z,2.40
2022-11-28T03:13:16.004Z,2.50
2022-11-28T03:14:19.383Z,5.00
2022-11-28T03:15:22.670Z,3.50
2022-11-28T03:16:25.906Z,1.50
2022-11-28T03:17:29.133Z,2.50
2022-11-28T03:18:32.620Z,3.25
2022-11-28T03:19:36.009Z,2.00
2022-11-28T03:20:40.839Z,2.00
2022-11-28T03:21:44.422Z,4.00
2022-11-28T03:22:47.706Z,3.50
2022-11-28T03:23:51.302Z,1.80
2022-11-28T03:24:55.204Z,1.25
2022-11-28T03:25:58.793Z,3.50
2022-11-28T03:27:02.184Z,4.00
2022-11-28T03:28:05.555Z,3.50
2022-11-28T03:29:08.844Z,3.50
2022-11-28T03:30:12.331Z,5.50
2022-11-28T03:31:16.211Z,3.25
2022-11-28T03:32:19.311Z,2.00
2022-11-28T03:33:22.493Z,4.00
2022-11-28T03:34:25.669Z,1.50
2022-11-28T03:35:28.751Z,2.50
2022-11-28T03:36:32.243Z,1.00
2022-11-28T03:37:35.628Z,1.00
2022-11-28T03:38:39.122Z,2.50
2022-11-28T03:39:42.502Z,3.50
2022-11-28T03:40:45.994Z,2.00
2022-11-28T03:41:49.992Z,1.75
2022-11-28T03:42:53.477Z,3.00
2022-11-28T03:43:56.772Z,3.00
2022-11-28T03:45:00.355Z,4.00
2022-11-28T03:46:04.362Z,2.50
2022-11-28T03:47:07.707Z,2.00
2022-11-28T03:48:10.829Z,1.50
2022-11-28T03:49:14.006Z,1.00
2022-11-28T03:50:17.299Z,1.25
2022-11-28T03:51:20.472Z,4.00
2022-11-28T03:52:23.656Z,3.50
2022-11-28T03:53:27.159Z,2.50
2022-11-28T03:54:30.325Z,2.00
2022-11-28T03:55:33.777Z,2.00
2022-11-28T03:56:36.792Z,1.50
2022-11-28T03:57:40.076Z,2.00
2022-11-28T03:58:43.265Z,2.75
2022-11-28T03:59:46.452Z,2.75
2022-11-28T04:00:49.461Z,1.50
2022-11-28T04:01:52.806Z,1.25
2022-11-28T04:02:55.915Z,2.00
2022-11-28T04:03:59.170Z,2.50
2022-11-28T04:05:02.452Z,1.50
2022-11-28T04:06:05.836Z,1.25
2022-11-28T04:07:09.231Z,2.00
2022-11-28T04:08:12.928Z,1.50
2022-11-28T04:09:16.512Z,1.00
2022-11-28T04:10:19.787Z,1.50
2022-11-28T04:11:23.088Z,1.50
2022-11-28T04:12:26.288Z,2.00
2022-11-28T04:13:30.233Z,0.75
2022-11-28T04:14:33.751Z,3.25
2022-11-28T04:15:36.935Z,3.00
2022-11-28T04:16:40.233Z,2.25
2022-11-28T04:17:43.393Z,2.50
2022-11-28T04:18:46.855Z,2.00
2022-11-28T04:19:50.085Z,3.00
2022-11-28T04:20:53.313Z,1.75
2022-11-28T04:21:56.437Z,1.75
2022-11-28T04:22:59.822Z,3.25
2022-11-28T04:24:03.527Z,3.50
2022-11-28T04:25:07.060Z,3.00
2022-11-28T04:26:09.983Z,2.75
2022-11-28T04:27:13.266Z,2.75
2022-11-28T04:28:16.350Z,4.00
2022-11-28T04:29:19.940Z,3.00
2022-11-28T04:30:23.085Z,2.50
2022-11-28T04:31:26.254Z,2.50
2022-11-28T04:32:29.611Z,4.75
2022-11-28T04:33:32.982Z,3.50
2022-11-28T04:34:36.885Z,3.50
2022-11-28T04:35:40.152Z,3.50
2022-11-28T04:36:43.404Z,3.25
2022-11-28T04:37:46.852Z,1.50
2022-11-28T04:38:49.912Z,2.50
2022-11-28T04:39:52.982Z,3.50
2022-11-28T04:40:56.163Z,3.75
2022-11-28T04:41:59.353Z,3.20
2022-11-28T04:43:02.646Z,1.50
2022-11-28T04:44:05.828Z,3.00
2022-11-28T04:45:09.914Z,3.00
2022-11-28T04:46:15.822Z,1.50
2022-11-28T04:47:19.366Z,1.00
2022-11-28T04:48:22.631Z,3.00
2022-11-28T04:49:25.936Z,5.00
2022-11-28T04:50:29.410Z,3.75
2022-11-28T04:51:33.001Z,1.00
2022-11-28T04:52:36.089Z,2.00
2022-11-28T04:53:39.334Z,2.75
2022-11-28T04:54:43.149Z,3.25
2022-11-28T04:55:46.660Z,4.50
2022-11-28T04:56:49.828Z,3.25
2022-11-28T04:57:57.100Z,2.25
2022-11-28T04:58:57.224Z,2.50
2022-11-28T05:00:00.711Z,3.00
2022-11-28T05:01:03.795Z,1.00
2022-11-28T05:02:07.244Z,1.00
2022-11-28T05:03:10.251Z,2.50
2022-11-28T05:04:13.571Z,2.00
2022-11-28T05:05:16.729Z,2.50
2022-11-28T05:06:20.215Z,3.75
2022-11-28T05:07:23.456Z,2.00
2022-11-28T05:08:26.470Z,3.00
2022-11-28T05:09:29.661Z,4.75
2022-11-28T05:10:33.347Z,4.75
2022-11-28T05:11:36.654Z,3.25
2022-11-28T05:12:39.914Z,1.50
2022-11-28T05:13:43.203Z,1.00
2022-11-28T05:14:46.387Z,2.00
2022-11-28T05:15:49.466Z,1.50
2022-11-28T05:16:52.723Z,2.50
2022-11-28T05:17:55.788Z,3.00
2022-11-28T05:18:58.704Z,2.75
2022-11-28T05:20:01.784Z,2.00
2022-11-28T05:21:04.918Z,3.50
2022-11-28T05:22:07.828Z,4.75
2022-11-28T05:23:11.144Z,3.50
2022-11-28T05:24:14.403Z,1.00
2022-11-28T05:25:17.483Z,2.00
2022-11-28T05:26:20.357Z,2.00
2022-11-28T05:27:23.749Z,2.00
2022-11-28T05:28:26.924Z,2.25
2022-11-28T05:29:30.310Z,3.00
2022-11-28T05:30:33.592Z,3.00
2022-11-28T05:31:36.919Z,1.25
2022-11-28T05:32:40.484Z,2.50
2022-11-28T05:33:43.757Z,2.00
2022-11-28T05:34:46.693Z,2.50
2022-11-28T05:35:49.716Z,2.50
2022-11-28T05:36:52.767Z,3.00
2022-11-28T05:37:55.761Z,3.50
2022-11-28T05:38:58.907Z,2.50
2022-11-28T05:40:01.831Z,2.60
2022-11-28T05:41:05.018Z,3.00
2022-11-28T05:42:08.190Z,2.00
2022-11-28T05:43:11.328Z,1.00
2022-11-28T05:44:14.212Z,1.50
2022-11-28T05:45:17.186Z,2.00
2022-11-28T05:46:20.469Z,2.00
2022-11-28T05:47:23.690Z,3.00
2022-11-28T05:48:27.088Z,3.50
2022-11-28T05:49:30.157Z,2.00
2022-11-28T05:50:38.479Z,2.50
2022-11-28T05:51:37.641Z,2.50
2022-11-28T05:52:40.932Z,3.50
2022-11-28T05:53:44.013Z,4.00
2022-11-28T05:54:46.985Z,4.00
2022-11-28T05:55:50.184Z,3.00
2022-11-28T05:56:53.351Z,3.00
2022-11-28T05:57:56.428Z,4.00
2022-11-28T05:59:00.020Z,6.00
2022-11-28T06:00:03.411Z,6.00
2022-11-28T06:01:06.482Z,3.50
2022-11-28T06:02:10.132Z,2.25
2022-11-28T06:03:13.565Z,3.75
2022-11-28T06:04:16.614Z,2.50
2022-11-28T06:05:41.013Z,2.50
2022-11-28T06:06:24.449Z,2.50
2022-11-28T06:07:27.792Z,1.00
2022-11-28T06:08:31.222Z,2.00
2022-11-28T06:09:34.411Z,2.00
2022-11-28T06:10:37.581Z,2.50
2022-11-28T06:11:40.760Z,3.75
2022-11-28T06:12:43.957Z,4.50
2022-11-28T06:13:47.240Z,3.00
2022-11-28T06:14:50.609Z,2.50
2022-11-28T06:15:53.903Z,2.25
2022-11-28T06:16:57.029Z,1.50
2022-11-28T06:18:00.055Z,1.75
2022-11-28T06:19:03.166Z,2.25
2022-11-28T06:20:06.732Z,4.00
2022-11-28T06:21:10.428Z,6.00
2022-11-28T06:22:13.812Z,3.50
2022-11-28T06:23:17.355Z,1.00
2022-11-28T06:24:20.585Z,3.00
2022-11-28T06:25:23.976Z,2.50
2022-11-28T06:26:27.153Z,2.40
2022-11-28T06:27:30.991Z,3.00
2022-11-28T06:28:34.433Z,5.00
2022-11-28T06:29:37.920Z,4.50
2022-11-28T06:30:41.225Z,1.75
2022-11-28T06:31:44.438Z,2.75
2022-11-28T06:32:47.572Z,4.00
2022-11-28T06:33:51.071Z,3.00
2022-11-28T06:34:54.452Z,3.00
2022-11-28T06:35:57.633Z,4.00
2022-11-28T06:37:01.149Z,3.00
2022-11-28T06:38:14.334Z,3.75
2022-11-28T06:39:16.192Z,5.25
2022-11-28T06:40:19.475Z,2.00
2022-11-28T06:41:23.210Z,2.75
2022-11-28T06:42:26.456Z,2.75
2022-11-28T06:43:29.642Z,2.00
2022-11-28T06:44:34.153Z,2.50
2022-11-28T06:45:37.560Z,2.00
2022-11-28T06:46:41.429Z,2.00
2022-11-28T06:47:44.652Z,3.25
2022-11-28T06:48:48.003Z,3.50
2022-11-28T06:49:51.179Z,2.50
2022-11-28T06:50:54.362Z,3.00
2022-11-28T06:51:57.748Z,2.00
2022-11-28T06:53:01.049Z,2.00
2022-11-28T06:54:04.224Z,2.00
2022-11-28T06:55:08.227Z,2.00
2022-11-28T06:56:11.617Z,1.75
2022-11-28T06:57:15.094Z,4.00
2022-11-28T06:58:18.503Z,4.50
2022-11-28T06:59:21.883Z,4.00
2022-11-28T07:00:25.370Z,2.50
2022-11-28T07:01:28.740Z,3.00
2022-11-28T07:02:32.216Z,4.00
2022-11-28T07:03:35.524Z,1.50
2022-11-28T07:04:38.813Z,2.25
2022-11-28T07:05:42.082Z,3.00
2022-11-28T07:06:45.571Z,3.00
2022-11-28T07:07:54.156Z,2.50
2022-11-28T07:08:54.105Z,2.00
2022-11-28T07:09:57.273Z,2.00
2022-11-28T07:11:00.507Z,2.00
2022-11-28T07:12:03.943Z,5.00
2022-11-28T07:13:07.334Z,4.25
2022-11-28T07:14:10.615Z,2.40
2022-11-28T07:15:13.800Z,2.75
2022-11-28T07:16:17.227Z,3.00
2022-11-28T07:17:20.987Z,2.40
2022-11-28T07:18:24.163Z,4.25
2022-11-28T07:19:27.469Z,2.50
2022-11-28T07:20:30.528Z,2.00
2022-11-28T07:21:36.773Z,2.50
2022-11-28T07:22:40.268Z,2.25
2022-11-28T07:23:43.956Z,2.50
2022-11-28T07:24:47.246Z,3.50
2022-11-28T07:25:51.473Z,4.75
2022-11-28T07:26:54.745Z,3.25
2022-11-28T07:27:58.133Z,3.75
2022-11-28T07:29:01.509Z,3.50
2022-11-28T07:30:04.895Z,2.50
2022-11-28T07:31:08.482Z,4.50
2022-11-28T07:32:11.853Z,4.20
2022-11-28T07:33:15.157Z,2.75
2022-11-28T07:34:18.511Z,2.75
2022-11-28T07:35:22.032Z,3.25
2022-11-28T07:36:25.011Z,1.00
2022-11-28T07:37:28.388Z,1.00
2022-11-28T07:38:31.689Z,1.50
2022-11-28T07:39:35.103Z,1.50
2022-11-28T07:40:38.148Z,2.00
2022-11-28T07:41:41.631Z,2.00
2022-11-28T07:42:44.822Z,2.50
2022-11-28T07:43:48.101Z,2.00
2022-11-28T07:44:51.690Z,2.00
2022-11-28T07:46:01.167Z,2.75
2022-11-28T07:47:02.208Z,1.25
2022-11-28T07:48:05.230Z,2.00
2022-11-28T07:49:08.521Z,2.40
2022-11-28T07:50:11.702Z,2.00
2022-11-28T07:51:14.978Z,3.50
2022-11-28T07:52:18.060Z,5.00
2022-11-28T07:53:21.046Z,4.00
2022-11-28T07:54:24.759Z,3.75
2022-11-28T07:55:28.012Z,4.25
2022-11-28T07:56:50.102Z,3.00
2022-11-28T07:57:35.613Z,3.25
2022-11-28T07:58:38.803Z,2.50
2022-11-28T07:59:42.357Z,1.50
2022-11-28T08:00:45.770Z,2.25
2022-11-28T08:01:49.412Z,4.00
2022-11-28T08:02:52.548Z,4.00
2022-11-28T08:03:55.759Z,2.25
2022-11-28T08:04:59.252Z,3.00
2022-11-28T08:06:03.272Z,3.75
2022-11-28T08:07:06.407Z,3.75
2022-11-28T08:08:09.687Z,4.25
2022-11-28T08:09:12.969Z,3.25
2022-11-28T08:10:16.246Z,2.75
2022-11-28T08:11:19.560Z,3.00
2022-11-28T08:12:22.621Z,3.25
2022-11-28T08:13:25.901Z,1.75
2022-11-28T08:14:29.082Z,3.00
2022-11-28T08:15:32.181Z,3.60
2022-11-28T08:16:35.697Z,4.25
2022-11-28T08:17:39.346Z,4.00
2022-11-28T08:18:42.640Z,4.00
2022-11-28T08:19:45.870Z,1.75
2022-11-28T08:20:49.301Z,3.50
2022-11-28T08:21:52.547Z,3.50
2022-11-28T08:22:55.884Z,1.00
2022-11-28T08:23:59.273Z,1.50
2022-11-28T08:25:02.966Z,2.00
2022-11-28T08:26:06.331Z,2.00
2022-11-28T08:27:10.032Z,3.00
2022-11-28T08:28:13.208Z,3.25
2022-11-28T08:29:16.488Z,3.75
2022-11-28T08:30:19.981Z,4.50
2022-11-28T08:31:23.751Z,3.00
2022-11-28T08:32:26.865Z,3.75
2022-11-28T08:33:30.041Z,5.20
2022-11-28T08:34:33.323Z,6.00
2022-11-28T08:35:36.574Z,3.50
2022-11-28T08:36:39.722Z,2.50
2022-11-28T08:37:43.294Z,3.50
2022-11-28T08:39:02.925Z,2.50
2022-11-28T08:39:52.292Z,3.50
2022-11-28T08:40:56.012Z,3.00
2022-11-28T08:42:02.973Z,3.25
2022-11-28T08:43:06.767Z,5.00
2022-11-28T08:44:10.455Z,2.25
2022-11-28T08:45:14.452Z,2.25
2022-11-28T08:46:18.240Z,2.50
2022-11-28T08:47:22.033Z,4.00
2022-11-28T08:48:25.631Z,2.00
2022-11-28T08:49:29.329Z,2.50
2022-11-28T08:50:32.819Z,3.00
2022-11-28T08:51:36.713Z,2.75
2022-11-28T08:52:40.735Z,2.75
2022-11-28T08:53:48.658Z,3.00
2022-11-28T08:54:49.430Z,4.00
2022-11-28T08:55:53.542Z,4.00
2022-11-28T08:56:56.989Z,2.00
2022-11-28T08:58:00.924Z,2.00
2022-11-28T08:59:04.930Z,2.25
2022-11-28T09:00:08.309Z,2.50
2022-11-28T09:01:12.775Z,4.50
2022-11-28T09:02:16.526Z,5.50
2022-11-28T09:03:20.642Z,5.25
2022-11-28T09:04:24.358Z,4.50
2022-11-28T09:05:27.969Z,4.00
2022-11-28T09:06:31.261Z,5.50
2022-11-28T09:07:35.952Z,4.75
2022-11-28T09:08:40.013Z,5.00
2022-11-28T09:09:44.240Z,5.00
2022-11-28T09:10:48.531Z,3.50
2022-11-28T09:11:52.422Z,2.50
2022-11-28T09:12:56.325Z,5.50
2022-11-28T09:13:59.725Z,4.50
2022-11-28T09:15:03.411Z,4.50
2022-11-28T09:16:07.211Z,5.00
2022-11-28T09:17:10.840Z,2.00
2022-11-28T09:18:14.586Z,2.00
2022-11-28T09:19:18.607Z,3.50
2022-11-28T09:20:22.051Z,4.00
2022-11-28T09:21:25.571Z,3.00
2022-11-28T09:22:29.506Z,3.00
2022-11-28T09:23:32.963Z,3.00
2022-11-28T09:24:36.770Z,2.50
2022-11-28T09:25:40.970Z,2.00
2022-11-28T09:26:44.754Z,3.75
2022-11-28T09:27:48.139Z,4.75
2022-11-28T09:28:52.037Z,4.25
2022-11-28T09:29:59.485Z,5.50
2022-11-28T09:31:02.840Z,3.75
2022-11-28T09:32:06.504Z,4.50
2022-11-28T09:33:10.203Z,4.00
2022-11-28T09:34:13.891Z,5.00
2022-11-28T09:35:17.890Z,4.50
2022-11-28T09:36:21.651Z,2.50
2022-11-28T09:37:25.483Z,3.00
2022-11-28T09:38:29.277Z,3.75
2022-11-28T09:39:43.906Z,3.50
2022-11-28T09:40:37.650Z,4.00
2022-11-28T09:41:41.284Z,3.25
2022-11-28T09:42:45.187Z,4.00
2022-11-28T09:43:52.136Z,3.50
2022-11-28T09:44:53.387Z,3.50
2022-11-28T09:45:57.127Z,5.75
2022-11-28T09:47:00.982Z,4.00
2022-11-28T09:48:04.631Z,2.75
2022-11-28T09:49:08.289Z,2.50
2022-11-28T09:50:12.243Z,3.75
2022-11-28T09:51:16.123Z,4.25
2022-11-28T09:52:19.949Z,3.00
2022-11-28T09:53:23.157Z,2.75
2022-11-28T09:54:26.530Z,2.75
2022-11-28T09:55:30.423Z,3.00
2022-11-28T09:56:34.247Z,3.00
2022-11-28T09:57:37.712Z,3.00
2022-11-28T09:58:41.203Z,4.50
2022-11-28T09:59:45.177Z,4.50
2022-11-28T10:00:52.676Z,4.00
2022-11-28T10:01:53.425Z,5.50
2022-11-28T10:02:57.311Z,4.50
2022-11-28T10:04:01.363Z,2.75
2022-11-28T10:05:05.094Z,3.00
2022-11-28T10:06:08.705Z,3.00
2022-11-28T10:07:12.448Z,3.00
2022-11-28T10:08:16.084Z,3.50
2022-11-28T10:09:19.433Z,3.00
2022-11-28T10:10:22.961Z,2.00
2022-11-28T10:11:26.862Z,2.00
2022-11-28T10:12:30.631Z,2.50
2022-11-28T10:13:59.871Z,2.25
2022-11-28T10:14:38.453Z,2.00
2022-11-28T10:15:42.158Z,3.50
2022-11-28T10:16:45.722Z,5.50
2022-11-28T10:17:49.231Z,4.50
2022-11-28T10:18:53.530Z,4.50
2022-11-28T10:19:57.279Z,5.00
2022-11-28T10:21:00.818Z,5.00
2022-11-28T10:22:04.516Z,3.00
2022-11-28T10:23:08.106Z,3.00
2022-11-28T10:24:11.451Z,4.00
2022-11-28T10:25:14.990Z,3.00
2022-11-28T10:26:18.784Z,4.00
2022-11-28T10:27:26.787Z,5.00
2022-11-28T10:28:26.787Z,5.00
2022-11-28T10:29:30.582Z,5.50
2022-11-28T10:30:34.061Z,4.50
2022-11-28T10:31:37.448Z,3.50
2022-11-28T10:32:41.042Z,2.50
2022-11-28T10:33:44.530Z,3.00
2022-11-28T10:34:47.922Z,5.00
2022-11-28T10:35:51.409Z,4.50
2022-11-28T10:36:55.250Z,3.50
2022-11-28T10:37:58.506Z,6.00
2022-11-28T10:39:03.751Z,4.50
2022-11-28T10:40:07.325Z,5.50
2022-11-28T10:41:11.105Z,4.00
2022-11-28T10:42:14.823Z,3.00
2022-11-28T10:43:17.986Z,3.50
2022-11-28T10:44:21.787Z,5.00
2022-11-28T10:45:25.267Z,5.00
2022-11-28T10:46:29.099Z,4.00
2022-11-28T10:47:32.352Z,3.75
2022-11-28T10:48:40.442Z,3.50
2022-11-28T10:49:40.804Z,2.75
2022-11-28T10:50:44.359Z,2.50
2022-11-28T10:51:48.041Z,2.50
2022-11-28T10:52:51.427Z,2.75
2022-11-28T10:53:55.022Z,2.50
2022-11-28T10:54:58.162Z,3.00
2022-11-28T10:56:01.911Z,3.00
2022-11-28T10:57:05.586Z,3.50
2022-11-28T10:58:08.873Z,4.25
2022-11-28T10:59:12.772Z,4.75
2022-11-28T11:00:16.080Z,4.00
2022-11-28T11:01:19.691Z,4.25
2022-11-28T11:02:23.031Z,4.50
2022-11-28T11:03:26.427Z,5.75
2022-11-28T11:04:30.018Z,6.75
2022-11-28T11:05:33.707Z,5.75
2022-11-28T11:06:47.669Z,5.00
2022-11-28T11:07:41.635Z,3.00
2022-11-28T11:08:45.506Z,4.25
2022-11-28T11:09:48.898Z,5.25
2022-11-28T11:10:52.694Z,4.50
2022-11-28T11:11:56.586Z,4.50
2022-11-28T11:12:59.878Z,4.00
2022-11-28T11:14:03.253Z,4.50
2022-11-28T11:15:07.165Z,4.00
2022-11-28T11:16:10.471Z,3.50
2022-11-28T11:17:13.827Z,4.00
2022-11-28T11:18:17.215Z,5.00
2022-11-28T11:19:21.519Z,5.25
2022-11-28T11:20:25.013Z,4.75
2022-11-28T11:21:28.289Z,5.50
2022-11-28T11:22:31.656Z,6.00
2022-11-28T11:23:38.259Z,5.00
2022-11-28T11:24:40.301Z,5.00
2022-11-28T11:25:43.906Z,4.50
2022-11-28T11:26:47.285Z,4.50
2022-11-28T11:27:50.771Z,4.00
2022-11-28T11:28:54.364Z,3.00
2022-11-28T11:29:57.614Z,6.00
2022-11-28T11:31:00.911Z,5.00
2022-11-28T11:32:04.309Z,4.50
2022-11-28T11:33:07.595Z,3.20
2022-11-28T11:34:10.966Z,3.50
2022-11-28T11:35:14.337Z,3.50
2022-11-28T11:36:17.550Z,3.50
2022-11-28T11:37:20.841Z,3.25
2022-11-28T11:38:24.188Z,5.25
2022-11-28T11:39:27.403Z,5.00
2022-11-28T11:40:30.790Z,4.00
2022-11-28T11:41:34.102Z,5.00
2022-11-28T11:42:37.256Z,4.00
2022-11-28T11:43:40.540Z,4.00
2022-11-28T11:44:43.826Z,3.75
2022-11-28T11:45:51.257Z,6.50
2022-11-28T11:46:51.847Z,8.00
2022-11-28T11:47:55.320Z,6.00
2022-11-28T11:48:58.808Z,4.00
2022-11-28T11:50:02.710Z,6.25
2022-11-28T11:51:05.991Z,4.00
2022-11-28T11:52:09.379Z,3.50
2022-11-28T11:53:12.765Z,5.50
2022-11-28T11:54:15.827Z,5.75
2022-11-28T11:55:19.122Z,5.50
2022-11-28T11:56:22.615Z,4.75
2022-11-28T11:57:33.192Z,3.50
2022-11-28T11:58:31.133Z,4.50
2022-11-28T11:59:34.313Z,5.00
2022-11-28T12:00:37.496Z,6.00
2022-11-28T12:01:40.983Z,6.75
2022-11-28T12:02:44.449Z,4.00
2022-11-28T12:03:47.759Z,5.00
2022-11-28T12:04:55.104Z,5.50
2022-11-28T12:06:59.933Z,5.00
2022-11-28T12:08:03.433Z,4.50
2022-11-28T12:09:06.946Z,4.00
2022-11-28T12:10:10.328Z,4.50
2022-11-28T12:11:13.500Z,3.50
2022-11-28T12:12:17.508Z,3.00
2022-11-28T12:13:20.794Z,4.25
2022-11-28T12:14:23.989Z,4.25
2022-11-28T12:15:26.929Z,3.50
2022-11-28T12:16:30.214Z,3.75
2022-11-28T12:18:38.105Z,4.50
2022-11-28T12:19:41.424Z,5.50
2022-11-28T12:20:44.810Z,5.50
2022-11-28T12:21:47.944Z,4.50
2022-11-28T12:22:51.375Z,5.00
2022-11-28T12:23:55.068Z,4.00
2022-11-28T12:24:58.661Z,4.50
2022-11-28T12:26:02.154Z,3.50
2022-11-28T12:27:05.735Z,3.75
2022-11-28T12:28:09.389Z,5.25
2022-11-28T12:29:12.931Z,6.00
2022-11-28T12:30:16.266Z,6.00
2022-11-28T12:31:19.847Z,4.50
2022-11-28T12:32:24.745Z,3.00
2022-11-28T12:33:29.439Z,4.00
2022-11-28T12:34:32.833Z,5.00
2022-11-28T12:35:35.982Z,5.00
2022-11-28T12:36:39.300Z,6.00
2022-11-28T12:38:09.856Z,5.50
2022-11-28T12:38:47.192Z,5.00
2022-11-28T12:39:50.783Z,5.00
2022-11-28T12:40:54.169Z,4.25
2022-11-28T12:41:57.357Z,4.50
2022-11-28T12:43:00.943Z,6.50
2022-11-28T12:44:04.597Z,8.00
2022-11-28T12:45:08.226Z,6.50
2022-11-28T12:46:11.531Z,5.00
2022-11-28T12:47:15.003Z,5.00
2022-11-28T12:48:18.516Z,6.50
2022-11-28T12:49:21.555Z,5.50
2022-11-28T12:50:25.084Z,4.00
2022-11-28T12:51:28.666Z,4.00
2022-11-28T12:52:32.099Z,6.00
2022-11-28T12:53:35.425Z,6.50
2022-11-28T12:54:38.813Z,3.00
2022-11-28T12:55:41.848Z,3.75
2022-11-28T12:56:45.286Z,4.00
2022-11-28T12:57:48.977Z,3.25
2022-11-28T12:58:52.763Z,5.50
2022-11-28T12:59:56.255Z,5.00
2022-11-28T13:00:59.739Z,5.50
2022-11-28T13:02:08.200Z,6.00
2022-11-28T13:03:07.846Z,5.00
2022-11-28T13:04:11.437Z,5.00
2022-11-28T13:05:14.620Z,5.00
2022-11-28T13:06:17.801Z,3.50
2022-11-28T13:07:21.271Z,3.50
2022-11-28T13:08:24.883Z,6.00
2022-11-28T13:09:28.172Z,7.00
2022-11-28T13:10:31.560Z,6.75
2022-11-28T13:11:34.627Z,7.50
2022-11-28T13:12:37.914Z,7.00
2022-11-28T13:13:41.417Z,4.00
2022-11-28T13:14:44.964Z,5.00
2022-11-28T13:15:48.352Z,5.00
2022-11-28T13:16:51.713Z,4.00
2022-11-28T13:17:54.815Z,5.00
2022-11-28T13:18:58.014Z,3.25
2022-11-28T13:20:01.319Z,3.50
2022-11-28T13:21:04.501Z,4.00
2022-11-28T13:22:07.855Z,3.25
2022-11-28T13:23:11.169Z,3.25
2022-11-28T13:24:14.788Z,4.50
2022-11-28T13:25:18.048Z,4.75
2022-11-28T13:26:21.434Z,4.50
2022-11-28T13:27:24.719Z,3.75
2022-11-28T13:28:28.000Z,5.00
2022-11-28T13:29:31.493Z,6.00
2022-11-28T13:30:34.770Z,6.50
2022-11-28T13:31:38.319Z,4.80
2022-11-28T13:32:41.546Z,3.50
2022-11-28T13:33:44.831Z,4.00
2022-11-28T13:34:48.314Z,4.50
2022-11-28T13:35:52.328Z,5.00
2022-11-28T13:39:12.817Z,4.00
2022-11-28T13:40:08.565Z,5.00
2022-11-28T13:41:35.307Z,5.25
2022-11-28T13:43:23.195Z,4.50
2022-11-28T13:44:26.801Z,3.25
2022-11-28T13:45:32.265Z,3.00
2022-11-28T13:46:34.420Z,4.00
2022-11-28T13:47:37.770Z,5.60
2022-11-28T13:49:12.749Z,5.00
2022-11-28T13:49:45.360Z,4.75
2022-11-28T13:50:48.745Z,5.00
2022-11-28T13:51:51.811Z,6.00
2022-11-28T13:52:55.004Z,6.00
2022-11-28T13:53:58.297Z,5.00
2022-11-28T13:55:01.468Z,5.00
2022-11-28T13:56:04.758Z,4.50
2022-11-28T13:57:08.048Z,7.50
2022-11-28T13:58:11.324Z,7.00
2022-11-28T13:59:14.606Z,4.50
2022-11-28T14:00:17.814Z,5.00
2022-11-28T14:01:21.326Z,5.00
2022-11-28T14:02:24.464Z,4.00
2022-11-28T14:03:27.691Z,4.00
2022-11-28T14:04:30.930Z,4.50
2022-11-28T14:05:34.339Z,6.50
2022-11-28T14:06:37.705Z,6.00
2022-11-28T14:07:41.031Z,5.00
2022-11-28T14:08:44.272Z,6.00
2022-11-28T14:09:47.556Z,7.50
2022-11-28T14:10:50.848Z,8.00